createdAt,value
2022-10-23T00:01:34.659Z,5.68
2022-10-23T00:04:07.849Z,6.05
2022-10-23T00:06:42.419Z,5.93
2022-10-23T00:09:17.114Z,6.20
2022-10-23T00:11:47.960Z,6.97
2022-10-23T00:14:36.142Z,6.53
2022-10-23T00:17:10.693Z,7.53
2022-10-23T00:19:42.378Z,6.55
2022-10-23T00:22:19.441Z,7.38
2022-10-23T00:24:48.041Z,7.57
2022-10-23T00:27:15.892Z,7.68
2022-10-23T00:29:48.840Z,7.43
2022-10-23T00:32:23.238Z,7.63
2022-10-23T00:34:51.185Z,7.55
2022-10-23T00:37:27.852Z,7.45
2022-10-23T00:40:02.411Z,6.80
2022-10-23T00:43:22.881Z,7.40
2022-10-23T00:45:55.933Z,7.68
2022-10-23T00:48:24.272Z,7.30
2022-10-23T00:51:23.049Z,7.05
2022-10-23T00:54:01.209Z,7.82
2022-10-23T00:56:44.982Z,7.63
2022-10-23T00:59:15.371Z,7.55
2022-10-23T01:02:16.087Z,7.28
2022-10-23T01:04:43.802Z,7.95
2022-10-23T01:08:02.842Z,6.45
2022-10-23T01:10:44.776Z,6.57
2022-10-23T01:13:21.322Z,6.03
2022-10-23T01:16:01.962Z,6.05
2022-10-23T01:18:44.394Z,5.65
2022-10-23T01:21:52.939Z,5.93
2022-10-23T01:24:29.524Z,6.05
2022-10-23T01:27:18.664Z,5.57
2022-10-23T01:29:58.101Z,6.43
2022-10-23T01:32:51.049Z,6.40
2022-10-23T01:35:39.035Z,5.63
2022-10-23T01:38:18.004Z,5.65
2022-10-23T01:41:04.358Z,6.47
2022-10-23T01:43:59.011Z,6.47
2022-10-23T01:46:42.829Z,5.97
2022-10-23T01:49:20.918Z,6.15
2022-10-23T01:52:06.133Z,6.07
2022-10-23T01:54:46.831Z,5.63
2022-10-23T02:00:18.600Z,5.40
2022-10-23T02:05:56.356Z,5.72
2022-10-23T02:08:27.832Z,6.07
2022-10-23T02:11:03.867Z,5.95
2022-10-23T02:13:58.814Z,9.93
2022-10-23T02:16:40.009Z,6.90
2022-10-23T02:19:47.098Z,7.03
2022-10-23T02:22:43.729Z,6.07
2022-10-23T02:25:38.297Z,6.22
2022-10-23T02:28:16.376Z,6.18
2022-10-23T02:30:53.706Z,6.03
2022-10-23T02:33:24.761Z,6.55
2022-10-23T02:35:58.800Z,8.20
2022-10-23T02:38:52.850Z,7.82
2022-10-23T02:41:59.978Z,7.45
2022-10-23T02:45:37.404Z,7.05
2022-10-23T02:49:06.926Z,8.20
2022-10-23T02:51:18.301Z,8.05
2022-10-23T02:54:19.210Z,7.15
2022-10-23T02:57:05.153Z,7.10
2022-10-23T03:00:03.429Z,8.10
2022-10-23T03:02:54.791Z,7.38
2022-10-23T03:05:49.907Z,6.60
2022-10-23T03:08:17.365Z,8.00
2022-10-23T03:13:27.933Z,7.90
2022-10-23T03:16:01.105Z,8.18
2022-10-23T03:18:28.646Z,8.50
2022-10-23T03:20:59.739Z,9.15
2022-10-23T03:23:29.281Z,8.32
2022-10-23T03:26:13.623Z,9.27
2022-10-23T03:29:17.721Z,7.10
2022-10-23T03:31:41.257Z,9.07
2022-10-23T03:34:11.885Z,10.07
2022-10-23T03:36:46.761Z,8.50
2022-10-23T03:39:17.147Z,7.60
2022-10-23T03:41:51.254Z,8.07
2022-10-23T03:44:35.813Z,9.30
2022-10-23T03:47:05.780Z,8.45
2022-10-23T03:49:42.884Z,5.55
2022-10-23T03:52:13.286Z,8.85
2022-10-23T03:54:51.585Z,8.63
2022-10-23T03:57:21.279Z,7.63
2022-10-23T03:59:51.193Z,8.18
2022-10-23T04:05:02.996Z,7.93
2022-10-23T04:07:36.308Z,7.00
2022-10-23T04:10:11.855Z,7.35
2022-10-23T04:12:51.245Z,7.38
2022-10-23T04:15:35.905Z,8.10
2022-10-23T04:18:07.590Z,6.80
2022-10-23T04:20:49.333Z,7.18
2022-10-23T04:23:31.460Z,8.40
2022-10-23T04:26:16.195Z,7.82
2022-10-23T04:29:14.215Z,7.10
2022-10-23T04:32:58.461Z,9.00
2022-10-23T04:35:26.344Z,7.45
2022-10-23T04:38:03.049Z,7.93
2022-10-23T04:40:50.824Z,8.50
2022-10-23T04:43:25.623Z,6.97
2022-10-23T04:45:58.499Z,9.02
2022-10-23T04:48:29.278Z,9.77
2022-10-23T04:51:21.248Z,9.63
2022-10-23T04:54:27.726Z,7.72
2022-10-23T04:57:33.930Z,6.85
2022-10-23T05:03:34.386Z,7.18
2022-10-23T05:18:40.382Z,9.35
2022-10-23T05:21:19.052Z,8.18
2022-10-23T05:23:55.425Z,9.32
2022-10-23T05:27:28.157Z,9.55
2022-10-23T06:52:14.480Z,9.60
2022-10-23T06:58:26.679Z,11.25
2022-10-23T08:01:40.532Z,11.73
2022-10-23T08:23:53.949Z,10.73
2022-10-23T08:26:38.586Z,12.48
2022-10-23T08:29:09.532Z,12.50
2022-10-23T08:31:41.851Z,13.57
2022-10-23T08:34:57.201Z,13.18
2022-10-23T08:38:23.732Z,13.10
2022-10-23T08:41:07.524Z,13.15
2022-10-23T08:51:58.066Z,13.40
2022-10-23T08:55:23.935Z,14.00
2022-10-23T08:58:29.841Z,14.25
2022-10-23T09:01:38.340Z,12.80
2022-10-23T09:04:30.999Z,13.68
2022-10-23T09:07:20.875Z,13.20
2022-10-23T09:10:31.552Z,13.63
2022-10-23T09:14:09.947Z,14.10
2022-10-23T09:17:51.660Z,14.05
2022-10-23T09:21:31.394Z,12.57
2022-10-23T10:35:54.761Z,11.73
2022-10-23T10:43:08.512Z,8.57
2022-10-23T10:45:46.259Z,13.00
2022-10-23T10:48:41.306Z,12.68
2022-10-23T10:52:27.329Z,13.70
2022-10-23T10:55:40.683Z,11.82
2022-10-23T10:58:37.200Z,12.68
2022-10-23T11:02:25.303Z,13.63
2022-10-23T11:05:23.220Z,11.40
2022-10-23T11:10:58.464Z,13.30
2022-10-23T11:13:51.630Z,12.18
2022-10-23T11:20:56.684Z,12.80
2022-10-23T11:24:15.791Z,13.80
2022-10-23T11:27:14.646Z,13.35
2022-10-23T11:29:53.916Z,12.90
2022-10-23T11:33:42.670Z,13.23
2022-10-23T11:44:03.155Z,12.18
2022-10-23T11:46:39.436Z,14.45
2022-10-23T11:49:29.157Z,13.90
2022-10-23T11:52:50.616Z,14.38
2022-10-23T11:55:38.651Z,13.82
2022-10-23T11:58:11.317Z,13.02
2022-10-23T12:01:35.028Z,14.00
2022-10-23T12:04:50.060Z,14.35
2022-10-23T12:07:49.774Z,8.13
2022-10-23T12:10:57.518Z,14.32
2022-10-23T12:13:46.843Z,13.73
2022-10-23T12:16:35.817Z,13.52
2022-10-23T12:19:32.473Z,14.10
2022-10-23T12:25:31.402Z,14.23
2022-10-23T12:28:10.404Z,14.13
2022-10-23T12:34:54.998Z,14.65
2022-10-23T12:37:57.385Z,15.23
2022-10-23T12:40:30.479Z,15.52
2022-10-23T12:43:09.557Z,15.55
2022-10-23T12:46:01.431Z,14.60
2022-10-23T12:48:37.467Z,15.15
2022-10-23T12:51:33.625Z,15.18
2022-10-23T12:54:24.113Z,14.70
2022-10-23T12:56:54.240Z,16.60
2022-10-23T13:00:00.509Z,14.73
2022-10-23T13:02:39.169Z,15.70
2022-10-23T13:05:21.846Z,15.32
2022-10-23T13:08:08.741Z,16.10
2022-10-23T13:11:02.398Z,15.38
2022-10-23T13:13:38.227Z,15.30
2022-10-23T13:16:26.059Z,15.27
2022-10-23T13:19:04.312Z,15.98
2022-10-23T13:21:54.899Z,15.65
2022-10-23T13:24:34.978Z,16.02
2022-10-23T13:27:35.008Z,15.02
2022-10-23T13:30:41.460Z,14.43
2022-10-23T13:33:32.157Z,14.27
2022-10-23T13:36:21.837Z,14.93
2022-10-23T13:39:16.543Z,15.07
2022-10-23T13:41:52.300Z,13.73
2022-10-23T13:44:30.334Z,13.93
2022-10-23T13:47:01.752Z,13.40
2022-10-23T13:49:34.182Z,15.05
2022-10-23T13:52:32.716Z,14.63
2022-10-23T13:55:15.738Z,14.07
2022-10-23T13:57:52.566Z,14.38
2022-10-23T14:00:59.015Z,14.63
2022-10-23T14:03:54.460Z,15.05
2022-10-23T14:06:31.395Z,15.48
2022-10-23T14:09:03.672Z,14.27
2022-10-23T14:11:35.544Z,16.15
2022-10-23T14:14:04.036Z,14.73
2022-10-23T14:16:38.735Z,14.15
2022-10-23T14:19:10.721Z,15.77
2022-10-23T14:21:40.448Z,14.52
2022-10-23T14:24:09.203Z,12.85
2022-10-23T14:27:03.075Z,13.45
2022-10-23T14:29:44.974Z,13.25
2022-10-23T14:32:16.671Z,13.68
2022-10-23T14:34:46.195Z,14.27
2022-10-23T14:37:22.613Z,14.55
2022-10-23T14:40:12.773Z,13.05
2022-10-23T14:42:42.371Z,14.38
2022-10-23T14:48:45.421Z,11.65
2022-10-23T14:51:28.483Z,15.30
2022-10-23T14:54:23.369Z,11.55
2022-10-23T14:56:51.080Z,12.60
2022-10-23T14:59:52.449Z,14.07
2022-10-23T15:02:46.653Z,14.07
2022-10-23T15:05:46.906Z,12.45
2022-10-23T15:08:27.095Z,14.10
2022-10-23T15:11:07.743Z,12.95
2022-10-23T15:13:50.293Z,12.25
2022-10-23T15:16:28.244Z,13.23
2022-10-23T15:19:10.888Z,12.35
2022-10-23T15:22:12.978Z,12.75
2022-10-23T15:24:54.552Z,12.25
2022-10-23T15:27:40.262Z,11.45
2022-10-23T15:30:24.495Z,11.40
2022-10-23T15:33:04.158Z,11.27
2022-10-23T15:35:46.377Z,12.43
2022-10-23T15:38:28.539Z,11.43
2022-10-23T15:44:24.833Z,10.52
2022-10-23T15:47:23.129Z,12.23
2022-10-23T15:50:17.871Z,11.55
2022-10-23T15:52:56.705Z,10.77
2022-10-23T15:55:55.712Z,12.35
2022-10-23T15:58:54.909Z,12.45
2022-10-23T16:01:55.324Z,11.90
2022-10-23T16:04:29.057Z,12.52
2022-10-23T16:07:13.495Z,12.07
2022-10-23T16:09:44.083Z,8.82
2022-10-23T16:16:00.678Z,10.63
2022-10-23T16:19:04.111Z,11.77
2022-10-23T16:22:12.997Z,12.20
2022-10-23T16:25:03.926Z,12.38
2022-10-23T16:27:44.094Z,12.30
2022-10-23T16:31:04.266Z,10.35
2022-10-23T16:36:55.742Z,11.57
2022-10-23T16:43:21.473Z,11.82
2022-10-23T16:46:41.907Z,11.75
2022-10-23T16:49:38.572Z,12.82
2022-10-23T16:52:50.907Z,11.73
2022-10-23T16:55:37.488Z,11.63
2022-10-23T16:58:51.178Z,12.55
2022-10-23T17:02:54.267Z,11.30
2022-10-23T17:05:56.456Z,10.93
2022-10-23T17:08:52.810Z,11.05
2022-10-23T17:12:17.571Z,11.77
2022-10-23T17:15:30.735Z,11.70
2022-10-23T17:18:12.240Z,11.82
2022-10-23T17:21:11.825Z,11.65
2022-10-23T17:23:58.226Z,10.88
2022-10-23T17:26:38.738Z,11.80
2022-10-23T17:29:13.022Z,11.52
2022-10-23T17:31:48.432Z,11.00
2022-10-23T17:34:33.096Z,11.70
2022-10-23T17:37:49.178Z,10.35
2022-10-23T17:43:50.177Z,11.63
2022-10-23T17:46:59.829Z,10.55
2022-10-23T17:50:00.172Z,10.48
2022-10-23T17:55:57.941Z,8.15
2022-10-23T17:58:33.058Z,11.30
2022-10-23T18:02:04.154Z,10.63
2022-10-23T18:05:03.628Z,9.27
2022-10-23T18:07:42.132Z,9.32
2022-10-23T18:10:15.030Z,9.65
2022-10-23T18:12:55.104Z,9.93
2022-10-23T18:15:45.586Z,9.00
2022-10-23T18:18:41.242Z,10.35
2022-10-23T18:25:26.548Z,11.70
2022-10-23T18:28:09.527Z,9.38
2022-10-23T18:31:28.903Z,9.63
2022-10-23T18:34:33.547Z,8.98
2022-10-23T18:40:13.741Z,8.05
2022-10-23T18:44:17.172Z,9.52
2022-10-23T18:46:29.587Z,8.20
2022-10-23T18:49:11.982Z,8.30
2022-10-23T18:51:52.675Z,8.38
2022-10-23T18:54:24.727Z,8.60
2022-10-23T18:57:06.965Z,7.90
2022-10-23T18:59:52.432Z,7.47
2022-10-23T19:02:30.692Z,7.93
2022-10-23T19:05:08.538Z,8.05
2022-10-23T19:08:08.663Z,7.85
2022-10-23T19:10:48.779Z,7.13
2022-10-23T19:14:11.684Z,7.95
2022-10-23T19:18:14.226Z,6.28
2022-10-23T19:21:56.207Z,4.65
2022-10-23T19:24:25.734Z,6.18
2022-10-23T19:26:57.462Z,5.68
2022-10-23T19:29:30.571Z,5.55
2022-10-23T19:32:17.682Z,5.70
2022-10-23T19:34:54.349Z,5.32
2022-10-23T19:37:24.178Z,6.80
2022-10-23T19:39:54.493Z,6.43
2022-10-23T19:43:26.171Z,6.72
2022-10-23T19:45:55.792Z,5.32
2022-10-23T19:48:29.587Z,5.18
2022-10-23T19:51:02.657Z,6.03
2022-10-23T19:53:42.959Z,6.32
2022-10-23T19:56:17.837Z,6.05
2022-10-23T19:58:55.426Z,5.20
2022-10-23T20:02:21.326Z,5.10
2022-10-23T20:04:56.527Z,6.85
2022-10-23T20:07:31.966Z,5.68
2022-10-23T20:10:04.370Z,6.40
2022-10-23T20:12:47.490Z,6.05
2022-10-23T20:15:35.893Z,6.50
2022-10-23T20:18:11.900Z,5.13
2022-10-23T20:20:43.230Z,5.97
2022-10-23T20:23:12.004Z,5.72
2022-10-23T20:25:43.015Z,6.05
2022-10-23T20:29:10.121Z,5.47
2022-10-23T20:32:35.574Z,6.10
2022-10-23T20:35:17.484Z,5.63
2022-10-23T20:38:10.825Z,5.13
2022-10-23T20:40:43.851Z,7.32
2022-10-23T20:44:36.633Z,5.75
2022-10-23T20:47:47.039Z,5.85
2022-10-23T20:50:17.672Z,6.60
2022-10-23T20:53:10.852Z,6.13
2022-10-23T20:55:55.260Z,6.10
2022-10-23T20:58:25.395Z,6.63
2022-10-23T21:00:54.219Z,6.40
2022-10-23T21:03:30.687Z,5.70
2022-10-23T21:06:31.499Z,6.47
2022-10-23T21:12:01.804Z,6.22
2022-10-23T21:14:52.664Z,5.60
2022-10-23T21:20:09.102Z,5.88
2022-10-23T21:23:11.498Z,6.57
2022-10-23T21:25:43.528Z,6.95
2022-10-23T21:28:28.627Z,6.45
2022-10-23T21:31:14.369Z,6.85
2022-10-23T21:33:59.319Z,5.05
2022-10-23T21:36:48.247Z,6.43
2022-10-23T21:39:19.777Z,7.07
2022-10-23T21:41:52.481Z,5.57
2022-10-23T21:44:25.880Z,7.47
2022-10-23T21:46:55.035Z,6.97
2022-10-23T21:49:28.832Z,5.95
2022-10-23T21:52:00.834Z,6.40
2022-10-23T21:54:28.466Z,6.05
2022-10-23T21:57:03.616Z,5.50
2022-10-23T22:02:04.430Z,5.72
2022-10-23T22:04:32.838Z,6.57
2022-10-23T22:07:03.057Z,6.60
2022-10-23T22:09:34.374Z,6.88
2022-10-23T22:12:03.270Z,7.40
2022-10-23T22:14:35.650Z,6.78
2022-10-23T22:17:21.008Z,7.65
2022-10-23T22:19:54.722Z,7.03
2022-10-23T22:22:28.044Z,6.20
2022-10-23T22:25:00.349Z,6.80
2022-10-23T22:27:31.834Z,6.22
2022-10-23T22:30:08.882Z,7.45
2022-10-23T22:32:42.203Z,7.30
2022-10-23T22:35:15.602Z,8.82
2022-10-23T22:37:59.984Z,7.70
2022-10-23T22:40:30.599Z,7.72
2022-10-23T22:43:03.469Z,7.18
2022-10-23T22:45:36.402Z,7.13
2022-10-23T22:48:10.318Z,7.38
2022-10-23T22:53:21.491Z,7.40
2022-10-23T22:55:53.745Z,6.72
2022-10-23T22:58:29.688Z,6.80
2022-10-23T23:01:38.460Z,7.78
2022-10-23T23:04:36.765Z,5.43
2022-10-23T23:07:03.057Z,7.57
2022-10-23T23:09:30.768Z,7.70
2022-10-23T23:12:01.986Z,7.18
2022-10-23T23:14:29.718Z,7.07
2022-10-23T23:16:57.356Z,5.47
2022-10-23T23:19:27.109Z,6.60
2022-10-23T23:22:03.221Z,6.75
2022-10-23T23:24:34.148Z,5.82
2022-10-23T23:27:09.740Z,6.88
2022-10-23T23:29:45.045Z,6.20
2022-10-23T23:32:20.565Z,5.60
2022-10-23T23:37:25.881Z,5.80
2022-10-23T23:39:58.940Z,5.75
2022-10-23T23:42:30.710Z,5.30
2022-10-23T23:45:14.169Z,5.20
2022-10-23T23:47:44.865Z,5.10
2022-10-23T23:50:15.714Z,6.03
2022-10-23T23:53:26.901Z,5.60
2022-10-23T23:55:59.799Z,5.35
2022-10-23T23:58:53.869Z,5.88
